4XCHA LLHZ-LLHZ

Flight info

Callsign 4XCHA
Flight time 0h 9m
Altitude 800
Route TRAINING FLIGHT
Aircraft C172/L-SFG/C

Departure

Time 2026-04-18 19:46
Airport Herzliya Airport (LLHZ)

Arrival

Time 2026-04-18 19:55
Airport Herzliya Airport (LLHZ)
Time Latitude Longitude Altitude Speed Heading
2026-04-18 19:32 32.18247 34.82842 95 ft 0 kts 200°
2026-04-18 19:38 32.18230 34.82831 95 ft 6 kts 205°
2026-04-18 19:39 32.18213 34.82822 95 ft 6 kts 197°
2026-04-18 19:39 32.18191 34.82843 95 ft 7 kts 107°
2026-04-18 19:39 32.18170 34.82912 95 ft 10 kts 110°
2026-04-18 19:39 32.18147 34.82988 96 ft 9 kts 112°
2026-04-18 19:40 32.18119 34.83046 98 ft 8 kts 121°
2026-04-18 19:40 32.18100 34.83104 99 ft 8 kts 110°
2026-04-18 19:40 32.18081 34.83167 100 ft 9 kts 110°
2026-04-18 19:40 32.18058 34.83245 102 ft 11 kts 111°
2026-04-18 19:41 32.18033 34.83329 104 ft 11 kts 109°
2026-04-18 19:41 32.18007 34.83415 104 ft 11 kts 111°
2026-04-18 19:41 32.17982 34.83502 108 ft 11 kts 108°
2026-04-18 19:41 32.17956 34.83588 110 ft 11 kts 109°
2026-04-18 19:42 32.17933 34.83666 114 ft 9 kts 108°
2026-04-18 19:42 32.17916 34.83727 115 ft 7 kts 110°
2026-04-18 19:42 32.17898 34.83785 119 ft 8 kts 110°
2026-04-18 19:42 32.17882 34.83845 121 ft 0 kts 92°
2026-04-18 19:44 32.17913 34.83845 123 ft 11 kts 298°
2026-04-18 19:45 32.17996 34.83567 109 ft 62 kts 290°
2026-04-18 19:45 32.18169 34.83001 243 ft 77 kts 287°
2026-04-18 19:45 32.18575 34.82676 487 ft 79 kts 353°
2026-04-18 19:45 32.19109 34.82883 664 ft 84 kts 45°
2026-04-18 19:46 32.19195 34.83583 741 ft 99 kts 102°
2026-04-18 19:46 32.18927 34.84327 753 ft 99 kts 120°
2026-04-18 19:46 32.18561 34.85007 636 ft 89 kts 148°
2026-04-18 19:46 32.18053 34.85107 528 ft 70 kts 199°
2026-04-18 19:47 32.17710 34.84802 425 ft 58 kts 250°
2026-04-18 19:47 32.17774 34.84335 279 ft 63 kts 279°
2026-04-18 19:47 32.17920 34.83837 139 ft 65 kts 284°
2026-04-18 19:47 32.18057 34.83362 158 ft 62 kts 281°
2026-04-18 19:48 32.18218 34.82832 293 ft 73 kts 292°
2026-04-18 19:48 32.18570 34.82393 536 ft 81 kts 346°
2026-04-18 19:48 32.19093 34.82679 660 ft 93 kts 46°
2026-04-18 19:48 32.19283 34.83362 703 ft 84 kts 104°
2026-04-18 19:49 32.19105 34.84013 762 ft 88 kts 115°
2026-04-18 19:49 32.18790 34.84721 693 ft 101 kts 128°
2026-04-18 19:49 32.18285 34.85174 618 ft 81 kts 178°
2026-04-18 19:49 32.17798 34.85087 464 ft 69 kts 207°
2026-04-18 19:50 32.17662 34.84671 327 ft 59 kts 284°
2026-04-18 19:50 32.17796 34.84244 232 ft 53 kts 277°
2026-04-18 19:50 32.17931 34.83827 220 ft 62 kts 278°
2026-04-18 19:50 32.18094 34.83280 323 ft 78 kts 285°
2026-04-18 19:51 32.18405 34.82781 547 ft 79 kts 326°
2026-04-18 19:51 32.18973 34.82719 687 ft 91 kts 15°
2026-04-18 19:51 32.19436 34.83281 719 ft 99 kts 73°
2026-04-18 19:51 32.19243 34.83934 753 ft 81 kts 153°
2026-04-18 19:52 32.18755 34.84354 665 ft 96 kts 124°
2026-04-18 19:52 32.18406 34.84982 606 ft 85 kts 153°
2026-04-18 19:52 32.17919 34.85043 541 ft 61 kts 219°
2026-04-18 19:52 32.17690 34.84622 367 ft 64 kts 272°
2026-04-18 19:53 32.17830 34.84123 200 ft 61 kts 288°
2026-04-18 19:53 32.17952 34.83677 117 ft 55 kts 288°
2026-04-18 19:53 32.18425 34.82773 382 ft 79 kts 350°
2026-04-18 19:54 32.18922 34.83123 532 ft 91 kts 57°
2026-04-18 19:54 32.18831 34.83845 660 ft 99 kts 119°
2026-04-18 19:54 32.18568 34.84624 691 ft 99 kts 112°
2026-04-18 19:54 32.18190 34.85115 693 ft 74 kts 179°
2026-04-18 19:55 32.17783 34.84911 577 ft 63 kts 232°
2026-04-18 19:55 32.17744 34.84416 336 ft 69 kts 290°
2026-04-18 19:55 32.17899 34.83907 139 ft 58 kts 283°
2026-04-18 19:55 32.17994 34.83563 109 ft 34 kts 294°
2026-04-18 19:56 32.18060 34.83357 102 ft 16 kts 292°
2026-04-18 19:56 32.18039 34.83321 103 ft 5 kts 245°
2026-04-18 19:56 32.18051 34.83264 102 ft 10 kts 288°
2026-04-18 19:56 32.18079 34.83169 100 ft 14 kts 289°
2026-04-18 19:57 32.18117 34.83049 98 ft 15 kts 303°
2026-04-18 19:57 32.18156 34.82957 96 ft 12 kts 289°
2026-04-18 19:57 32.18182 34.82872 95 ft 10 kts 288°
2026-04-18 19:57 32.18207 34.82816 95 ft 4 kts 358°
2026-04-18 19:58 32.18242 34.82825 95 ft 5 kts 11°
2026-04-18 19:58 32.18252 34.82828 95 ft 0 kts 16°